»·PEaware :: N90726 KSAN-KSBA

N90726 :: KSAN-KSBA

FLIGHT INFORMATION

Flight Status: Arrived
Operator: Privately registered:
United States
More flights under this callsign
Pilot: Alex A. (3534)
Aircraft: MCDONNELL-DOUGLAS DC-6/B LIFTMASTER
(DC6)
More flights by this aircraft type
Origin: KSAN San Diego Intl-Lindbergh
United States
Destination: KSBA Santa Barbara Mun
United States
More flights between these airports :: More routes between these airports
Route: OCN V23 LAX V299 VTU VTU282R KWANG
File this flight plan on PilotEdge
Remarks: plz speek slowly / TEC route SANN35
Altitude:
(Current/Filed)
6,000ft
Speed:
(Current/Filed)
180kts
Departed: 11-Apr-17 08:39 AM
Arrived: 11-Apr-17 09:37 AM
Distance/Time
Traveled:
167nm/0:58
Distance/Time
To Go:
Arrived

Flight Plot

Page will automatically refresh every two minutes.


Map Options




Map Legend


Flown Route
Filed Route
Departure Airport
Arrival Airport
Navaid (VOR, NDB)
Fix

Horizontal Profiles

Position Reports

Time Latitude Longitude Heading Altitude Ground
Speed
11-Apr-17 07:38 32.733322 -117.196456 176 26ft 0kts
11-Apr-17 07:39 32.733322 -117.196456 176 26ft 0kts
11-Apr-17 07:40 32.733322 -117.196456 176 26ft 0kts
11-Apr-17 07:41 32.733322 -117.196456 176 26ft 0kts
11-Apr-17 07:42 32.733322 -117.196456 176 26ft 0kts
11-Apr-17 07:43 32.733322 -117.196456 176 26ft 0kts
11-Apr-17 07:44 32.733322 -117.196456 176 26ft 0kts
11-Apr-17 07:45 32.733322 -117.196456 176 26ft 0kts
11-Apr-17 07:46 32.733322 -117.196456 176 26ft 0kts
11-Apr-17 07:47 32.733322 -117.196456 176 26ft 0kts
11-Apr-17 07:48 32.733322 -117.196456 176 26ft 0kts
11-Apr-17 07:49 32.733322 -117.196456 176 26ft 0kts
11-Apr-17 07:50 32.733322 -117.196456 176 26ft 0kts
11-Apr-17 07:51 32.733322 -117.196456 176 26ft 0kts
11-Apr-17 07:52 32.733322 -117.196456 176 26ft 0kts
11-Apr-17 07:53 32.733322 -117.196456 176 26ft 0kts
11-Apr-17 07:54 32.733322 -117.196456 176 26ft 0kts
11-Apr-17 07:55 32.733322 -117.196456 176 26ft 0kts
11-Apr-17 07:56 32.733322 -117.196456 176 26ft 0kts
11-Apr-17 07:57 32.733322 -117.196456 176 26ft 0kts
11-Apr-17 07:58 32.733322 -117.196456 176 26ft 0kts
11-Apr-17 07:59 32.733322 -117.196456 176 26ft 0kts
11-Apr-17 08:00 32.733322 -117.196456 176 26ft 0kts
11-Apr-17 08:01 32.733322 -117.196456 176 26ft 0kts
11-Apr-17 08:02 32.733322 -117.196456 176 26ft 0kts
11-Apr-17 08:03 32.733322 -117.196456 176 26ft 0kts
11-Apr-17 08:04 32.733322 -117.196456 176 26ft 0kts
11-Apr-17 08:05 32.733322 -117.196456 176 26ft 0kts
11-Apr-17 08:06 32.733322 -117.196456 176 26ft 0kts
11-Apr-17 08:07 32.733322 -117.196456 176 26ft 0kts
11-Apr-17 08:08 32.733322 -117.196456 176 26ft 0kts
11-Apr-17 08:09 32.733322 -117.196456 176 26ft 0kts
11-Apr-17 08:10 32.733322 -117.196456 176 26ft 0kts
11-Apr-17 08:11 32.733322 -117.196456 176 26ft 0kts
11-Apr-17 08:12 32.733322 -117.196456 176 26ft 0kts
11-Apr-17 08:13 32.733322 -117.196456 176 26ft 0kts
11-Apr-17 08:14 32.733322 -117.196456 176 26ft 0kts
11-Apr-17 08:15 32.733322 -117.196456 176 26ft 0kts
11-Apr-17 08:16 32.733322 -117.196456 176 26ft 0kts
11-Apr-17 08:17 32.733322 -117.196456 176 26ft 0kts
11-Apr-17 08:18 32.733322 -117.196456 176 26ft 0kts
11-Apr-17 08:19 32.733322 -117.196456 176 26ft 0kts
11-Apr-17 08:20 32.733322 -117.196456 176 26ft 0kts
11-Apr-17 08:21 32.733322 -117.196456 176 26ft 0kts
11-Apr-17 08:22 32.733322 -117.196456 176 26ft 0kts
11-Apr-17 08:23 32.733322 -117.196456 176 26ft 0kts
11-Apr-17 08:24 32.733321 -117.196456 176 26ft 0kts
11-Apr-17 08:25 32.733321 -117.196456 176 26ft 0kts
11-Apr-17 08:26 32.733321 -117.196456 176 26ft 0kts
11-Apr-17 08:27 32.733321 -117.196456 176 26ft 0kts
11-Apr-17 08:28 32.733321 -117.196456 176 26ft 0kts
11-Apr-17 08:29 32.733321 -117.196456 176 26ft 0kts
11-Apr-17 08:30 32.733524 -117.196476 181 26ft 3kts
11-Apr-17 08:31 32.733529 -117.196472 265 26ft 0kts
11-Apr-17 08:32 32.733529 -117.196472 265 26ft 0kts
11-Apr-17 08:33 32.733862 -117.196290 82 26ft 6kts
11-Apr-17 08:34 32.733275 -117.192687 106 26ft 22kts
11-Apr-17 08:35 32.730997 -117.183346 105 26ft 29kts
11-Apr-17 08:36 32.729524 -117.176887 82 26ft 0kts
11-Apr-17 08:37 32.729524 -117.176887 82 26ft 0kts
11-Apr-17 08:38 32.729579 -117.176491 77 26ft 7kts
11-Apr-17 08:39 32.730410 -117.176718 286 26ft 0kts
11-Apr-17 08:40 32.734781 -117.195823 282 193ft 134kts
11-Apr-17 08:41 32.761166 -117.240419 321 733ft 201kts
11-Apr-17 08:42 32.812593 -117.287700 321 1694ft 196kts
11-Apr-17 08:43 32.854796 -117.327003 321 2406ft 188kts
11-Apr-17 08:44 32.894428 -117.365187 322 3178ft 180kts
11-Apr-17 08:45 32.932327 -117.375699 2 3756ft 188kts
11-Apr-17 08:46 32.993938 -117.380540 348 4539ft 197kts
11-Apr-17 08:47 33.048745 -117.386911 348 5373ft 199kts
11-Apr-17 08:48 33.094778 -117.392220 348 5993ft 204kts
11-Apr-17 08:49 33.149081 -117.401067 344 5957ft 218kts
11-Apr-17 08:50 33.199663 -117.411047 344 5958ft 225kts
11-Apr-17 08:51 33.263365 -117.443500 310 5957ft 216kts
11-Apr-17 08:52 33.299326 -117.485357 310 5957ft 218kts
11-Apr-17 08:53 33.350391 -117.544487 310 5957ft 220kts
11-Apr-17 08:54 33.394457 -117.595555 310 5970ft 221kts
11-Apr-17 08:55 33.431115 -117.638133 310 5976ft 222kts
11-Apr-17 08:56 33.472999 -117.687381 309 5976ft 223kts
11-Apr-17 08:57 33.517385 -117.739334 310 5976ft 224kts
11-Apr-17 08:58 33.561958 -117.791613 310 5971ft 224kts
11-Apr-17 08:59 33.606178 -117.843910 309 5974ft 225kts
11-Apr-17 09:00 33.650534 -117.896630 309 5974ft 224kts
11-Apr-17 09:01 33.694763 -117.949369 309 5974ft 225kts
11-Apr-17 09:02 33.738572 -118.001793 309 5969ft 224kts
11-Apr-17 09:03 33.774109 -118.059917 286 5968ft 216kts
11-Apr-17 09:04 33.805148 -118.121567 287 5974ft 215kts
11-Apr-17 09:05 33.818061 -118.189736 259 5973ft 209kts
11-Apr-17 09:06 33.830258 -118.257411 284 5973ft 215kts
11-Apr-17 09:07 33.849831 -118.325586 284 5973ft 215kts
11-Apr-17 09:08 33.884110 -118.383557 314 5974ft 226kts
11-Apr-17 09:09 33.931152 -118.432965 292 5951ft 218kts
11-Apr-17 09:10 33.952423 -118.496512 298 5954ft 219kts
11-Apr-17 09:11 33.974509 -118.563487 286 5973ft 215kts
11-Apr-17 09:12 33.996190 -118.631004 286 5974ft 216kts
11-Apr-17 09:13 34.017009 -118.697398 285 5950ft 217kts
11-Apr-17 09:14 34.038300 -118.765603 285 5949ft 217kts
11-Apr-17 09:15 34.059546 -118.833417 285 5972ft 216kts
11-Apr-17 09:16 34.076349 -118.886997 285 5976ft 216kts
11-Apr-17 09:17 34.097607 -118.954927 285 5976ft 217kts
11-Apr-17 09:18 34.111508 -119.021641 274 5972ft 213kts
11-Apr-17 09:19 34.124830 -119.091171 296 5970ft 220kts
11-Apr-17 09:20 34.156834 -119.153897 295 5958ft 220kts
11-Apr-17 09:21 34.186252 -119.218545 291 5957ft 218kts
11-Apr-17 09:22 34.213618 -119.283788 291 5957ft 218kts
11-Apr-17 09:23 34.241044 -119.349273 291 5957ft 218kts
11-Apr-17 09:24 34.268419 -119.414778 291 5957ft 218kts
11-Apr-17 09:25 34.295716 -119.480267 291 5957ft 218kts
11-Apr-17 09:26 34.322980 -119.545671 291 5970ft 218kts
11-Apr-17 09:27 34.350080 -119.610792 291 5965ft 209kts
11-Apr-17 09:28 34.362562 -119.669381 228 5937ft 176kts
11-Apr-17 09:29 34.333729 -119.639596 64 5195ft 220kts
11-Apr-17 09:30 34.371601 -119.648336 256 4199ft 169kts
11-Apr-17 09:31 34.338685 -119.642218 96 3127ft 203kts
11-Apr-17 09:32 34.371011 -119.627275 292 2976ft 117kts
11-Apr-17 09:33 34.389075 -119.658637 294 2450ft 125kts
11-Apr-17 09:34 34.401646 -119.699417 286 2010ft 125kts
11-Apr-17 09:35 34.414533 -119.738519 293 1955ft 126kts
11-Apr-17 09:36 34.427283 -119.774531 275 1211ft 118kts
11-Apr-17 09:37 34.428190 -119.813677 266 426ft 112kts
11-Apr-17 09:38 34.427643 -119.844056 269 22ft 25kts
11-Apr-17 09:39 34.427116 -119.846154 188 22ft 0kts
11-Apr-17 09:40 34.426971 -119.846157 175 22ft 3kts
11-Apr-17 09:41 34.426629 -119.841400 89 22ft 23kts
11-Apr-17 09:42 34.425646 -119.837972 110 22ft 4kts
11-Apr-17 09:43 34.425316 -119.837191 147 22ft 0kts
11-Apr-17 09:44 34.425316 -119.837191 147 22ft 0kts

Navigation Log

Ident Type
Flight plan parsing failed, navigation log unavailable